Terminal Aerodrome Forecast
Issued by NWS

Home | Current Version | Previous Version | Text Only | Print | Product List | Glossary On
Versions: 1 2 3 4 5 6 7 8 9 10 11 12
000
FTAK31 PAJN 122300
TAFAPG
TAF
PAPG 122322Z 1300/1324 21006KT P6SM SCT040 BKN060
     FM130900 00000KT 2SM BR BKN004 OVC020
     FM131600 05004KT P6SM SCT005 BKN025
     FM132100 06005KT P6SM BKN035
      AMD LTD TO CLD VIS AND WIND 1306/1315=

USA.gov is the U.S. government's official web portal to all federal, state and local government web resources and services.